createdAt,value
2019-03-15T00:01:43.276Z,3.00
2019-03-15T00:04:12.178Z,1.70
2019-03-15T00:06:41.043Z,1.80
2019-03-15T00:09:10.012Z,2.20
2019-03-15T00:11:38.837Z,1.57
2019-03-15T00:14:07.682Z,1.83
2019-03-15T00:16:36.531Z,1.93
2019-03-15T00:19:05.363Z,2.80
2019-03-15T00:21:34.211Z,1.90
2019-03-15T00:24:03.226Z,1.40
2019-03-15T00:26:33.566Z,1.77
2019-03-15T00:29:02.527Z,1.60
2019-03-15T00:31:31.338Z,1.30
2019-03-15T00:34:00.103Z,2.13
2019-03-15T00:36:28.917Z,1.83
2019-03-15T00:38:57.883Z,1.57
2019-03-15T00:41:26.771Z,1.40
2019-03-15T00:43:55.587Z,1.20
2019-03-15T00:46:24.388Z,1.20
2019-03-15T00:48:53.277Z,1.10
2019-03-15T00:51:21.962Z,1.47
2019-03-15T00:53:53.964Z,1.00
2019-03-15T00:56:21.491Z,1.60
2019-03-15T00:58:50.379Z,1.17
2019-03-15T01:01:20.102Z,1.30
2019-03-15T01:03:49.486Z,1.03
2019-03-15T01:06:18.392Z,1.83
2019-03-15T01:08:47.483Z,1.00
2019-03-15T01:11:16.185Z,1.50
2019-03-15T01:13:45.060Z,1.00
2019-03-15T01:16:14.231Z,1.37
2019-03-15T01:18:43.225Z,1.03
2019-03-15T01:21:12.105Z,1.73
2019-03-15T01:23:40.892Z,1.07
2019-03-15T01:26:09.964Z,1.17
2019-03-15T01:28:38.915Z,1.20
2019-03-15T01:31:07.810Z,1.93
2019-03-15T01:33:36.638Z,1.20
2019-03-15T01:36:05.575Z,1.40
2019-03-15T01:38:34.556Z,1.37
2019-03-15T01:41:04.266Z,1.30
2019-03-15T01:43:33.395Z,0.80
2019-03-15T01:46:02.396Z,1.53
2019-03-15T01:48:31.187Z,1.10
2019-03-15T01:51:00.049Z,1.73
2019-03-15T01:53:28.962Z,1.03
2019-03-15T01:55:57.836Z,1.30
2019-03-15T01:58:26.739Z,1.00
2019-03-15T02:00:55.540Z,1.33
2019-03-15T02:03:24.378Z,1.30
2019-03-15T02:05:53.143Z,1.57
2019-03-15T02:08:22.076Z,1.33
2019-03-15T02:10:50.979Z,2.20
2019-03-15T02:13:19.722Z,1.77
2019-03-15T02:15:48.647Z,1.10
2019-03-15T02:18:18.275Z,2.33
2019-03-15T02:20:47.563Z,1.70
2019-03-15T02:23:16.441Z,1.33
2019-03-15T02:25:45.283Z,1.90
2019-03-15T02:28:14.123Z,3.00
2019-03-15T02:30:43.032Z,1.67
2019-03-15T02:33:11.810Z,1.47
2019-03-15T02:35:40.563Z,2.87
2019-03-15T02:38:09.435Z,1.60
2019-03-15T02:40:38.811Z,1.97
2019-03-15T02:43:07.810Z,3.10
2019-03-15T02:45:36.676Z,2.07
2019-03-15T02:48:05.531Z,1.50
2019-03-15T02:50:34.364Z,2.50
2019-03-15T02:53:03.292Z,2.57
2019-03-15T02:55:32.172Z,2.43
2019-03-15T02:58:02.040Z,2.40
2019-03-15T03:00:31.067Z,1.87
2019-03-15T03:02:59.893Z,1.93
2019-03-15T03:05:28.781Z,2.20
2019-03-15T03:07:57.654Z,1.63
2019-03-15T03:10:26.401Z,2.37
2019-03-15T03:12:55.308Z,1.83
2019-03-15T03:15:25.047Z,1.53
2019-03-15T03:17:53.948Z,2.27
2019-03-15T03:20:22.761Z,2.07
2019-03-15T03:22:51.555Z,2.00
2019-03-15T03:25:20.372Z,1.80
2019-03-15T03:27:49.125Z,2.43
2019-03-15T03:30:17.971Z,3.03
2019-03-15T03:32:46.725Z,1.83
2019-03-15T03:35:15.532Z,2.30
2019-03-15T03:37:45.150Z,1.90
2019-03-15T03:40:14.218Z,1.53
2019-03-15T03:42:43.058Z,1.40
2019-03-15T03:45:12.026Z,1.70
2019-03-15T03:47:40.948Z,2.10
2019-03-15T03:50:10.859Z,2.30
2019-03-15T03:52:41.690Z,2.47
2019-03-15T03:55:10.251Z,1.57
2019-03-15T03:57:39.099Z,1.90
2019-03-15T04:00:11.252Z,2.30
2019-03-15T04:02:40.083Z,1.70
2019-03-15T04:05:08.995Z,1.90
2019-03-15T04:07:37.909Z,1.10
2019-03-15T04:10:09.350Z,2.00
2019-03-15T04:12:38.220Z,1.63
2019-03-15T04:15:09.629Z,1.30
2019-03-15T04:17:38.459Z,1.93
2019-03-15T04:20:12.331Z,1.43
2019-03-15T04:22:41.242Z,1.93
2019-03-15T04:25:10.886Z,1.83
2019-03-15T04:27:39.797Z,1.40
2019-03-15T04:30:13.883Z,2.33
2019-03-15T04:32:42.642Z,2.07
2019-03-15T04:35:11.596Z,1.67
2019-03-15T04:37:40.421Z,2.10
2019-03-15T04:40:11.565Z,3.17
2019-03-15T04:42:40.460Z,1.60
2019-03-15T04:45:09.395Z,2.63
2019-03-15T04:47:38.515Z,1.60
2019-03-15T04:50:08.214Z,2.27
2019-03-15T04:52:37.028Z,1.70
2019-03-15T04:55:07.075Z,1.83
2019-03-15T04:57:37.668Z,2.83
2019-03-15T05:00:14.012Z,1.87
2019-03-15T05:02:42.914Z,2.10
2019-03-15T05:05:11.908Z,1.37
2019-03-15T05:07:40.771Z,1.67
2019-03-15T05:10:10.292Z,1.40
2019-03-15T05:12:39.204Z,2.20
2019-03-15T05:15:10.004Z,2.03
2019-03-15T05:17:38.796Z,1.77
2019-03-15T05:20:09.475Z,1.70
2019-03-15T05:22:38.258Z,1.90
2019-03-15T05:25:08.382Z,2.03
2019-03-15T05:27:37.219Z,2.10
2019-03-15T05:30:08.917Z,1.97
2019-03-15T05:32:37.769Z,3.03
2019-03-15T05:35:07.323Z,1.90
2019-03-15T05:37:36.179Z,1.97
2019-03-15T05:40:07.013Z,1.73
2019-03-15T05:42:35.939Z,1.30
2019-03-15T05:45:09.715Z,1.70
2019-03-15T05:47:38.715Z,2.00
2019-03-15T05:50:10.442Z,2.17
2019-03-15T05:52:39.315Z,1.83
2019-03-15T05:55:12.683Z,1.77
2019-03-15T05:57:41.525Z,1.63
2019-03-15T06:00:12.802Z,1.60
2019-03-15T06:02:41.684Z,1.77
2019-03-15T06:05:10.811Z,1.53
2019-03-15T06:07:41.324Z,1.73
2019-03-15T06:10:11.994Z,1.47
2019-03-15T06:12:40.862Z,1.67
2019-03-15T06:15:11.068Z,1.57
2019-03-15T06:17:39.973Z,1.77
2019-03-15T06:20:12.962Z,2.40
2019-03-15T06:22:41.968Z,2.20
2019-03-15T06:25:11.584Z,1.70
2019-03-15T06:27:40.347Z,1.70
2019-03-15T06:30:13.739Z,1.60
2019-03-15T06:32:42.646Z,2.23
2019-03-15T06:35:11.729Z,1.40
2019-03-15T06:37:40.619Z,1.63
2019-03-15T06:40:13.246Z,1.80
2019-03-15T06:42:40.979Z,1.90
2019-03-15T06:45:12.218Z,1.97
2019-03-15T06:47:41.036Z,2.13
2019-03-15T06:50:10.112Z,2.10
2019-03-15T06:52:39.076Z,1.87
2019-03-15T06:55:09.000Z,2.47
2019-03-15T06:57:37.886Z,2.53
2019-03-15T07:00:14.812Z,2.90
2019-03-15T07:02:43.574Z,1.57
2019-03-15T07:05:12.705Z,1.70
2019-03-15T07:07:41.665Z,1.27
2019-03-15T07:10:11.437Z,1.90
2019-03-15T07:12:40.808Z,1.60
2019-03-15T07:15:14.397Z,1.57
2019-03-15T07:17:43.210Z,2.40
2019-03-15T07:20:16.503Z,2.63
2019-03-15T07:22:45.332Z,2.10
2019-03-15T07:25:14.238Z,2.33
2019-03-15T07:27:43.283Z,2.67
2019-03-15T07:30:14.066Z,2.80
2019-03-15T07:32:42.869Z,2.00
2019-03-15T07:35:11.764Z,1.37
2019-03-15T07:37:40.659Z,1.60
2019-03-15T07:40:11.660Z,1.80
2019-03-15T07:42:40.516Z,1.70
2019-03-15T07:45:11.212Z,2.03
2019-03-15T07:47:40.026Z,2.17
2019-03-15T07:50:13.925Z,2.50
2019-03-15T07:52:41.755Z,1.47
2019-03-15T07:55:11.024Z,1.80
2019-03-15T07:57:39.955Z,2.30
2019-03-15T08:00:11.701Z,1.90
2019-03-15T08:02:40.516Z,2.70
2019-03-15T08:05:10.496Z,2.53
2019-03-15T08:07:44.710Z,1.87
2019-03-15T08:10:11.196Z,2.20
2019-03-15T08:12:40.063Z,1.70
2019-03-15T08:15:10.654Z,1.63
2019-03-15T08:17:39.458Z,1.80
2019-03-15T08:20:11.270Z,2.10
2019-03-15T08:22:40.092Z,1.97
2019-03-15T08:25:10.804Z,1.33
2019-03-15T08:27:39.644Z,1.30
2019-03-15T08:30:14.363Z,2.33
2019-03-15T08:32:43.990Z,1.27
2019-03-15T08:35:14.083Z,2.63
2019-03-15T08:37:42.948Z,1.40
2019-03-15T08:40:13.132Z,1.93
2019-03-15T08:42:41.883Z,1.60
2019-03-15T08:45:18.871Z,1.50
2019-03-15T08:47:47.701Z,1.37
2019-03-15T08:50:17.446Z,2.03
2019-03-15T08:52:46.267Z,1.50
2019-03-15T08:55:15.027Z,1.80
2019-03-15T08:57:43.837Z,1.33
2019-03-15T09:00:17.170Z,1.40
2019-03-15T09:02:45.996Z,1.90
2019-03-15T09:05:15.535Z,1.90
2019-03-15T09:07:44.395Z,1.73
2019-03-15T09:10:24.051Z,1.30
2019-03-15T09:12:50.516Z,1.63
2019-03-15T09:15:19.336Z,2.13
2019-03-15T09:17:48.155Z,2.77
2019-03-15T09:20:17.025Z,1.43
2019-03-15T09:22:45.979Z,1.70
2019-03-15T09:25:20.443Z,2.00
2019-03-15T09:27:49.068Z,1.63
2019-03-15T09:30:23.493Z,2.30
2019-03-15T09:32:48.470Z,2.07
2019-03-15T09:35:17.347Z,1.93
2019-03-15T09:37:47.708Z,1.97
2019-03-15T09:40:16.781Z,2.20
2019-03-15T09:42:45.686Z,2.17
2019-03-15T09:45:18.516Z,2.10
2019-03-15T09:47:47.385Z,2.50
2019-03-15T09:50:29.071Z,2.70
2019-03-15T09:52:47.554Z,2.33
2019-03-15T09:55:16.380Z,2.03
2019-03-15T09:57:45.276Z,3.00
2019-03-15T10:00:18.500Z,2.70
2019-03-15T10:02:47.331Z,2.93
2019-03-15T10:05:16.319Z,2.67
2019-03-15T10:07:45.135Z,2.57
2019-03-15T10:10:19.192Z,2.93
2019-03-15T10:12:48.432Z,2.57
2019-03-15T10:15:17.748Z,3.20
2019-03-15T10:17:46.692Z,2.63
2019-03-15T10:20:16.077Z,3.10
2019-03-15T10:22:44.828Z,3.53
2019-03-15T10:25:15.660Z,2.40
2019-03-15T10:27:44.543Z,3.20
2019-03-15T10:30:17.911Z,2.70
2019-03-15T10:32:46.739Z,2.80
2019-03-15T10:35:15.608Z,2.23
2019-03-15T10:37:44.436Z,2.30
2019-03-15T10:40:18.158Z,2.60
2019-03-15T10:42:47.026Z,3.00
2019-03-15T10:45:15.924Z,2.60
2019-03-15T10:47:44.758Z,2.93
2019-03-15T10:50:17.686Z,2.07
2019-03-15T10:52:47.479Z,3.50
2019-03-15T10:55:16.251Z,2.87
2019-03-15T10:57:45.136Z,2.40
2019-03-15T11:00:18.997Z,2.47
2019-03-15T11:02:47.843Z,2.33
2019-03-15T11:05:16.628Z,2.17
2019-03-15T11:07:45.453Z,2.30
2019-03-15T11:10:14.212Z,2.10
2019-03-15T11:12:43.086Z,1.83
2019-03-15T11:15:13.044Z,2.03
2019-03-15T11:17:41.878Z,2.77
2019-03-15T11:20:11.886Z,2.13
2019-03-15T11:22:40.620Z,1.67
2019-03-15T11:25:10.662Z,2.43
2019-03-15T11:27:39.527Z,1.97
2019-03-15T11:30:10.845Z,2.30
2019-03-15T11:32:39.603Z,1.60
2019-03-15T11:35:09.708Z,2.20
2019-03-15T11:37:38.541Z,1.43
2019-03-15T11:40:14.055Z,2.17
2019-03-15T11:42:42.474Z,1.70
2019-03-15T11:45:12.293Z,1.50
2019-03-15T11:48:01.130Z,1.67
2019-03-15T11:50:14.332Z,1.97
2019-03-15T11:52:43.099Z,2.73
2019-03-15T11:55:11.950Z,2.00
2019-03-15T11:57:40.749Z,2.37
2019-03-15T12:00:18.471Z,2.23
2019-03-15T12:02:47.362Z,1.67
2019-03-15T12:05:16.293Z,2.30
2019-03-15T12:07:45.037Z,2.73
2019-03-15T12:10:14.982Z,2.40
2019-03-15T12:12:43.828Z,3.00
2019-03-15T12:15:17.108Z,3.33
2019-03-15T12:17:45.904Z,2.23
2019-03-15T12:20:14.733Z,1.93
2019-03-15T12:22:43.482Z,1.83
2019-03-15T12:25:12.778Z,2.40
2019-03-15T12:27:41.622Z,1.90
2019-03-15T12:30:13.117Z,1.87
2019-03-15T12:32:41.996Z,2.07
2019-03-15T12:35:12.010Z,2.17
2019-03-15T12:37:40.844Z,2.13
2019-03-15T12:40:17.445Z,1.90
2019-03-15T12:42:46.596Z,2.47
2019-03-15T12:45:15.811Z,2.10
2019-03-15T12:47:44.703Z,2.27
2019-03-15T12:50:14.388Z,1.90
2019-03-15T12:52:47.485Z,2.93
2019-03-15T12:55:14.525Z,2.67
2019-03-15T12:57:43.348Z,2.30
2019-03-15T13:00:20.301Z,2.00
2019-03-15T13:02:49.107Z,1.63
2019-03-15T13:05:17.930Z,2.43
2019-03-15T13:07:46.828Z,3.07
2019-03-15T13:10:19.603Z,3.33
2019-03-15T13:12:48.330Z,2.77
2019-03-15T13:15:17.606Z,3.13
2019-03-15T13:17:46.487Z,3.13
2019-03-15T13:20:16.450Z,2.87
2019-03-15T13:22:45.219Z,2.77
2019-03-15T13:25:14.042Z,2.43
2019-03-15T13:27:42.796Z,2.70
2019-03-15T13:30:14.553Z,2.27
2019-03-15T13:32:43.628Z,2.30
2019-03-15T13:35:13.455Z,2.57
2019-03-15T13:37:43.450Z,2.40
2019-03-15T13:40:18.468Z,2.00
2019-03-15T13:42:48.108Z,2.73
2019-03-15T13:45:17.363Z,2.07
2019-03-15T13:47:46.668Z,2.23
2019-03-15T13:50:20.836Z,2.50
2019-03-15T13:52:50.012Z,1.83
2019-03-15T13:55:18.803Z,2.30
2019-03-15T13:57:47.748Z,1.63
2019-03-15T14:00:17.772Z,1.97
2019-03-15T14:02:46.596Z,2.80
2019-03-15T14:05:19.579Z,2.00
2019-03-15T14:07:46.956Z,1.87
2019-03-15T14:10:16.595Z,1.77
2019-03-15T14:12:45.447Z,1.73
2019-03-15T14:15:18.868Z,1.93
2019-03-15T14:17:47.876Z,2.30
2019-03-15T14:20:16.815Z,2.93
2019-03-15T14:22:46.580Z,1.63
2019-03-15T14:25:23.237Z,1.93
2019-03-15T14:27:52.308Z,1.83
2019-03-15T14:30:23.124Z,1.97
2019-03-15T14:32:52.924Z,2.63
2019-03-15T14:35:21.853Z,2.27
2019-03-15T14:37:50.751Z,1.80
2019-03-15T14:40:19.549Z,2.70
2019-03-15T14:42:48.717Z,2.67
2019-03-15T14:45:17.615Z,3.07
2019-03-15T14:47:46.517Z,3.17
2019-03-15T14:50:15.604Z,2.70
2019-03-15T14:52:44.437Z,3.43
2019-03-15T14:55:17.078Z,3.83
2019-03-15T14:57:52.520Z,3.40
2019-03-15T15:00:18.365Z,2.83
2019-03-15T15:02:47.199Z,3.47
2019-03-15T15:05:16.070Z,3.40
2019-03-15T15:07:44.907Z,3.67
2019-03-15T15:10:15.088Z,3.10
2019-03-15T15:12:43.849Z,3.10
2019-03-15T15:15:16.117Z,3.17
2019-03-15T15:17:44.956Z,3.20
2019-03-15T15:20:14.022Z,3.10
2019-03-15T15:22:42.834Z,3.57
2019-03-15T15:25:18.610Z,3.73
2019-03-15T15:27:47.383Z,3.50
2019-03-15T15:30:19.574Z,3.87
2019-03-15T15:32:48.438Z,3.43
2019-03-15T15:37:50.202Z,2.93
2019-03-15T15:40:19.525Z,3.27
2019-03-15T15:42:48.351Z,2.83
2019-03-15T15:45:17.275Z,3.77
2019-03-15T15:47:46.074Z,3.03
2019-03-15T15:50:15.708Z,3.30
2019-03-15T15:52:44.599Z,3.00
2019-03-15T15:55:15.232Z,2.63
2019-03-15T15:57:44.067Z,2.60
2019-03-15T16:00:15.126Z,2.57
2019-03-15T16:02:43.966Z,3.33
2019-03-15T16:05:12.855Z,2.93
2019-03-15T16:07:41.746Z,2.90
2019-03-15T16:10:17.640Z,2.80
2019-03-15T16:12:45.279Z,2.87
2019-03-15T16:15:18.165Z,3.03
2019-03-15T16:17:46.992Z,3.27
2019-03-15T16:20:15.956Z,3.30
2019-03-15T16:22:44.868Z,3.00
2019-03-15T16:25:13.917Z,2.73
2019-03-15T16:27:42.763Z,2.90
2019-03-15T16:30:15.867Z,3.10
2019-03-15T16:32:44.779Z,2.57
2019-03-15T16:35:14.409Z,3.10
2019-03-15T16:37:43.179Z,3.00
2019-03-15T16:40:13.532Z,2.80
2019-03-15T16:42:42.380Z,3.30
2019-03-15T16:45:23.070Z,2.93
2019-03-15T16:47:51.875Z,2.83
2019-03-15T16:50:20.686Z,2.70
2019-03-15T16:52:49.589Z,2.47
2019-03-15T16:55:18.404Z,2.37
2019-03-15T16:57:47.267Z,2.80
2019-03-15T17:00:17.035Z,2.60
2019-03-15T17:02:46.201Z,2.60
2019-03-15T17:05:15.315Z,2.90
2019-03-15T17:07:44.199Z,2.47
2019-03-15T17:10:14.339Z,3.33
2019-03-15T17:12:43.273Z,2.70
2019-03-15T17:15:19.301Z,2.60
2019-03-15T17:17:47.900Z,2.53
2019-03-15T17:20:16.796Z,2.50
2019-03-15T17:22:45.611Z,2.67
2019-03-15T17:25:14.620Z,2.53
2019-03-15T17:27:43.485Z,2.67
2019-03-15T17:30:18.698Z,2.80
2019-03-15T17:32:47.875Z,2.23
2019-03-15T17:35:19.859Z,4.17
2019-03-15T17:37:49.156Z,2.57
2019-03-15T17:40:19.180Z,2.30
2019-03-15T17:42:49.525Z,2.90
2019-03-15T17:45:18.660Z,2.73
2019-03-15T17:47:47.583Z,2.60
2019-03-15T17:50:18.204Z,2.27
2019-03-15T17:52:48.093Z,2.57
2019-03-15T17:55:17.542Z,2.93
2019-03-15T17:57:46.456Z,2.10
2019-03-15T18:00:48.930Z,2.50
2019-03-15T18:03:21.565Z,2.60
2019-03-15T18:05:48.355Z,2.07
2019-03-15T18:08:17.284Z,2.90
2019-03-15T18:10:46.106Z,2.33
2019-03-15T18:13:14.949Z,2.10
2019-03-15T18:15:43.748Z,2.43
2019-03-15T18:18:12.586Z,2.07
2019-03-15T18:20:41.363Z,1.87
2019-03-15T18:23:10.243Z,2.00
2019-03-15T18:25:39.083Z,1.80
2019-03-15T18:28:07.922Z,1.90
2019-03-15T18:30:36.729Z,1.30
2019-03-15T18:33:05.555Z,1.00
2019-03-15T18:35:34.454Z,1.23
2019-03-15T18:38:03.318Z,1.17
2019-03-15T18:40:32.067Z,1.40
2019-03-15T18:43:00.912Z,1.63
2019-03-15T18:45:29.700Z,1.13
2019-03-15T18:47:58.514Z,1.63
2019-03-15T18:50:28.853Z,1.10
2019-03-15T18:52:57.716Z,1.60
2019-03-15T18:55:26.484Z,1.30
2019-03-15T18:57:55.906Z,1.67
2019-03-15T19:00:25.609Z,2.10
2019-03-15T19:02:54.411Z,0.83
2019-03-15T19:05:23.163Z,1.20
2019-03-15T19:07:52.074Z,0.90
2019-03-15T19:10:20.900Z,0.93
2019-03-15T19:12:49.741Z,0.73
2019-03-15T19:15:19.812Z,1.00
2019-03-15T19:17:48.660Z,1.80
2019-03-15T19:20:17.700Z,0.90
2019-03-15T19:22:46.572Z,1.00
2019-03-15T19:25:15.924Z,1.07
2019-03-15T19:27:44.836Z,0.90
2019-03-15T19:30:16.111Z,0.97
2019-03-15T19:32:44.934Z,0.80
2019-03-15T19:35:13.783Z,1.10
2019-03-15T19:37:42.890Z,0.77
2019-03-15T19:40:21.058Z,0.60
2019-03-15T19:42:49.943Z,0.83
2019-03-15T19:45:18.773Z,0.80
2019-03-15T19:47:47.587Z,0.50
2019-03-15T19:50:19.690Z,0.63
2019-03-15T19:52:48.657Z,0.87
2019-03-15T19:55:17.786Z,0.90
2019-03-15T19:57:46.631Z,0.97
2019-03-15T20:00:20.476Z,0.67
2019-03-15T20:02:49.237Z,0.67
2019-03-15T20:05:18.147Z,0.90
2019-03-15T20:07:47.035Z,0.67
2019-03-15T20:10:17.215Z,0.67
2019-03-15T20:12:46.468Z,0.40
2019-03-15T20:15:16.421Z,0.77
2019-03-15T20:17:45.181Z,1.10
2019-03-15T20:20:16.068Z,0.77
2019-03-15T20:22:44.901Z,0.97
2019-03-15T20:25:18.082Z,0.93
2019-03-15T20:27:46.972Z,0.80
2019-03-15T20:30:25.701Z,0.73
2019-03-15T20:32:50.260Z,1.03
2019-03-15T20:35:19.116Z,0.83
2019-03-15T20:37:48.012Z,1.03
2019-03-15T20:40:16.932Z,0.90
2019-03-15T20:42:45.752Z,0.87
2019-03-15T20:45:19.486Z,1.37
2019-03-15T20:47:48.192Z,1.03
2019-03-15T20:50:16.994Z,0.60
2019-03-15T20:52:45.837Z,1.70
2019-03-15T20:55:14.667Z,0.70
2019-03-15T20:57:43.540Z,0.77
2019-03-15T21:00:34.805Z,1.10
2019-03-15T21:02:53.354Z,0.90
2019-03-15T21:05:22.108Z,0.70
2019-03-15T21:07:50.932Z,0.73
2019-03-15T21:10:19.909Z,1.00
2019-03-15T21:12:48.722Z,0.93
2019-03-15T21:15:20.515Z,0.70
2019-03-15T21:17:49.337Z,1.27
2019-03-15T21:20:22.895Z,1.30
2019-03-15T21:22:51.885Z,1.10
2019-03-15T21:25:20.709Z,0.87
2019-03-15T21:27:54.150Z,0.87
2019-03-15T21:30:22.183Z,0.97
2019-03-15T21:32:51.133Z,1.23
2019-03-15T21:35:19.880Z,1.07
2019-03-15T21:37:48.731Z,1.47
2019-03-15T21:40:19.979Z,0.93
2019-03-15T21:42:49.157Z,1.10
2019-03-15T21:45:17.987Z,1.13
2019-03-15T21:47:46.931Z,1.20
2019-03-15T21:50:19.668Z,1.63
2019-03-15T21:52:48.507Z,1.03
2019-03-15T21:55:17.312Z,1.00
2019-03-15T21:57:46.123Z,1.30
2019-03-15T22:00:18.644Z,1.17
2019-03-15T22:02:47.400Z,0.70
2019-03-15T22:05:16.172Z,1.33
2019-03-15T22:07:47.486Z,1.20
2019-03-15T22:10:16.977Z,1.17
2019-03-15T22:12:45.714Z,1.40
2019-03-15T22:15:14.530Z,1.30
2019-03-15T22:17:43.661Z,1.07
2019-03-15T22:20:14.916Z,1.07
2019-03-15T22:22:43.757Z,1.77
2019-03-15T22:25:12.609Z,1.30
2019-03-15T22:27:41.446Z,0.97
2019-03-15T22:30:12.203Z,1.27
2019-03-15T22:32:41.075Z,1.53
2019-03-15T22:35:09.817Z,1.83
2019-03-15T22:37:38.651Z,1.40
2019-03-15T22:40:09.556Z,1.60
2019-03-15T22:42:38.596Z,1.13
2019-03-15T22:45:09.793Z,1.20
2019-03-15T22:47:38.669Z,1.23
2019-03-15T22:50:09.085Z,1.37
2019-03-15T22:52:37.840Z,1.47
2019-03-15T22:55:08.738Z,1.20
2019-03-15T22:57:37.561Z,1.10
2019-03-15T23:00:17.331Z,1.80
2019-03-15T23:02:46.143Z,1.50
2019-03-15T23:05:15.260Z,1.00
2019-03-15T23:07:44.119Z,1.60
2019-03-15T23:10:12.900Z,1.50
2019-03-15T23:12:41.643Z,1.17
2019-03-15T23:15:11.731Z,1.00
2019-03-15T23:17:40.564Z,1.20
2019-03-15T23:20:11.539Z,1.33
2019-03-15T23:22:40.427Z,1.00
2019-03-15T23:25:09.818Z,1.93
2019-03-15T23:27:38.588Z,1.10
2019-03-15T23:30:16.307Z,1.97
2019-03-15T23:32:45.150Z,1.00
2019-03-15T23:35:13.902Z,1.40
2019-03-15T23:37:42.700Z,1.43
2019-03-15T23:40:13.805Z,1.20
2019-03-15T23:42:42.564Z,1.43
2019-03-15T23:45:11.827Z,1.73
2019-03-15T23:47:40.579Z,1.67
2019-03-15T23:50:11.930Z,1.90
2019-03-15T23:52:40.730Z,1.37
2019-03-15T23:55:09.483Z,1.30
2019-03-15T23:57:38.212Z,1.43
